createdAt,value
2024-04-13T00:00:13.285Z,9.17
2024-04-13T00:03:17.142Z,6.32
2024-04-13T00:06:20.857Z,9.95
2024-04-13T00:09:24.444Z,6.97
2024-04-13T00:12:27.511Z,7.72
2024-04-13T00:15:32.107Z,8.07
2024-04-13T00:18:36.065Z,8.73
2024-04-13T00:21:40.838Z,8.27
2024-04-13T00:24:43.928Z,10.23
2024-04-13T00:27:46.881Z,9.95
2024-04-13T00:30:49.974Z,7.47
2024-04-13T00:33:53.048Z,7.53
2024-04-13T00:36:56.074Z,14.68
2024-04-13T00:39:59.092Z,7.20
2024-04-13T00:43:13.397Z,6.90
2024-04-13T00:46:25.433Z,12.30
2024-04-13T00:49:29.072Z,17.10
2024-04-13T00:52:33.313Z,12.13
2024-04-13T00:55:38.088Z,8.57
2024-04-13T00:58:43.902Z,12.82
2024-04-13T01:01:48.245Z,15.13
2024-04-13T01:04:51.672Z,11.45
2024-04-13T01:07:55.960Z,9.23
2024-04-13T01:11:02.676Z,11.25
2024-04-13T01:14:05.948Z,11.15
2024-04-13T01:17:09.463Z,7.13
2024-04-13T01:20:14.060Z,7.60
2024-04-13T01:23:17.858Z,9.97
2024-04-13T01:26:21.531Z,12.07
2024-04-13T01:29:24.726Z,12.32
2024-04-13T01:32:28.363Z,7.03
2024-04-13T01:35:32.043Z,8.70
2024-04-13T01:38:35.096Z,7.55
2024-04-13T01:41:43.232Z,10.20
2024-04-13T01:44:46.143Z,7.60
2024-04-13T01:47:49.742Z,7.50
2024-04-13T01:50:52.815Z,6.07
2024-04-13T01:53:56.879Z,9.03
2024-04-13T01:57:00.521Z,9.10
2024-04-13T02:00:04.557Z,7.53
2024-04-13T02:03:08.414Z,8.10
2024-04-13T02:06:11.487Z,7.68
2024-04-13T02:09:14.945Z,7.22
2024-04-13T02:12:18.753Z,6.10
2024-04-13T02:15:21.705Z,7.03
2024-04-13T02:18:24.839Z,14.25
2024-04-13T02:21:27.861Z,7.05
2024-04-13T02:24:31.108Z,6.80
2024-04-13T02:27:35.374Z,8.65
2024-04-13T02:30:38.491Z,6.80
2024-04-13T02:33:42.106Z,8.53
2024-04-13T02:36:45.202Z,11.23
2024-04-13T02:39:48.648Z,7.80
2024-04-13T02:42:52.835Z,6.63
2024-04-13T02:45:56.240Z,7.65
2024-04-13T02:49:00.055Z,8.15
2024-04-13T02:52:04.548Z,9.35
2024-04-13T02:55:08.800Z,11.00
2024-04-13T02:58:12.274Z,6.25
2024-04-13T03:01:15.393Z,7.35
2024-04-13T03:04:18.436Z,7.17
2024-04-13T03:07:22.474Z,7.53
2024-04-13T03:10:25.436Z,7.13
2024-04-13T03:13:30.098Z,13.07
2024-04-13T03:16:33.586Z,9.25
2024-04-13T03:19:38.213Z,8.80
2024-04-13T03:22:41.188Z,8.00
2024-04-13T03:25:44.158Z,9.10
2024-04-13T03:28:47.708Z,8.93
2024-04-13T03:31:51.204Z,6.13
2024-04-13T03:34:54.258Z,7.53
2024-04-13T03:37:59.030Z,8.30
2024-04-13T03:41:08.157Z,8.73
2024-04-13T03:44:11.283Z,8.35
2024-04-13T03:47:14.762Z,8.05
2024-04-13T03:50:17.995Z,11.32
2024-04-13T03:53:21.030Z,8.85
2024-04-13T03:56:24.579Z,6.50
2024-04-13T03:59:27.540Z,11.77
2024-04-13T04:02:30.452Z,8.18
2024-04-13T04:05:33.962Z,6.57
2024-04-13T04:08:37.516Z,8.93
2024-04-13T04:11:40.506Z,9.00
2024-04-13T04:14:44.127Z,7.95
2024-04-13T04:17:47.943Z,7.88
2024-04-13T04:20:51.419Z,7.68
2024-04-13T04:23:54.953Z,8.65
2024-04-13T04:26:58.984Z,9.13
2024-04-13T04:30:01.893Z,8.07
2024-04-13T04:33:05.445Z,7.22
2024-04-13T04:36:10.692Z,8.57
2024-04-13T04:39:14.259Z,8.43
2024-04-13T04:42:17.788Z,10.35
2024-04-13T04:45:21.352Z,7.85
2024-04-13T04:48:24.571Z,8.50
2024-04-13T04:51:27.656Z,7.25
2024-04-13T04:54:31.126Z,7.10
2024-04-13T04:57:34.672Z,5.93
2024-04-13T05:00:38.256Z,8.45
2024-04-13T05:03:41.836Z,7.70
2024-04-13T05:06:44.822Z,6.97
2024-04-13T05:09:47.753Z,7.43
2024-04-13T05:12:50.743Z,9.45
2024-04-13T05:15:54.346Z,6.90
2024-04-13T05:18:57.619Z,8.55
2024-04-13T05:22:06.032Z,8.10
2024-04-13T05:25:09.621Z,6.45
2024-04-13T05:28:13.086Z,4.40
2024-04-13T05:31:16.124Z,6.32
2024-04-13T05:34:19.754Z,6.07
2024-04-13T05:37:23.573Z,9.37
2024-04-13T05:40:26.956Z,5.60
2024-04-13T05:43:30.887Z,8.73
2024-04-13T05:46:33.912Z,11.25
2024-04-13T05:49:36.924Z,5.82
2024-04-13T05:52:40.936Z,10.07
2024-04-13T05:55:45.844Z,5.03
2024-04-13T05:58:49.399Z,9.38
2024-04-13T06:01:52.354Z,6.55
2024-04-13T06:04:55.643Z,7.72
2024-04-13T06:07:59.181Z,8.07
2024-04-13T06:11:03.626Z,5.43
2024-04-13T06:14:07.083Z,7.88
2024-04-13T06:17:10.055Z,7.57
2024-04-13T06:20:13.584Z,11.68
2024-04-13T06:23:19.207Z,8.03
2024-04-13T06:26:22.864Z,7.90
2024-04-13T06:29:25.831Z,14.45
2024-04-13T06:32:29.418Z,7.90
2024-04-13T06:35:32.947Z,8.88
2024-04-13T06:38:36.574Z,7.53
2024-04-13T06:41:41.583Z,13.18
2024-04-13T06:44:45.095Z,9.77
2024-04-13T06:47:48.008Z,13.10
2024-04-13T06:50:51.510Z,7.97
2024-04-13T06:53:55.047Z,11.23
2024-04-13T06:56:58.490Z,6.40
2024-04-13T07:00:02.139Z,7.97
2024-04-13T07:03:06.302Z,10.35
2024-04-13T07:06:09.853Z,8.40
2024-04-13T07:09:13.156Z,8.30
2024-04-13T07:12:16.827Z,14.10
2024-04-13T07:15:20.310Z,9.68
2024-04-13T07:18:23.977Z,8.63
2024-04-13T07:21:27.600Z,7.30
2024-04-13T07:24:31.358Z,6.50
2024-04-13T07:27:34.345Z,8.35
2024-04-13T07:30:37.880Z,5.78
2024-04-13T07:33:41.045Z,5.97
2024-04-13T07:36:44.752Z,8.52
2024-04-13T07:39:48.322Z,8.47
2024-04-13T07:42:51.889Z,6.82
2024-04-13T07:45:55.588Z,6.43
2024-04-13T07:48:59.189Z,9.32
2024-04-13T07:52:03.026Z,8.05
2024-04-13T07:55:06.383Z,7.67
2024-04-13T07:58:09.916Z,7.25
2024-04-13T08:01:13.560Z,5.93
2024-04-13T08:04:17.217Z,8.68
2024-04-13T08:07:20.135Z,8.93
2024-04-13T08:10:23.448Z,6.97
2024-04-13T08:13:27.143Z,5.78
2024-04-13T08:16:30.585Z,5.00
2024-04-13T08:19:33.918Z,9.48
2024-04-13T08:22:37.938Z,12.52
2024-04-13T08:25:40.985Z,8.87
2024-04-13T08:28:44.611Z,14.25
2024-04-13T08:31:47.700Z,6.47
2024-04-13T08:34:53.295Z,13.10
2024-04-13T08:37:56.931Z,6.00
2024-04-13T08:41:04.589Z,8.97
2024-04-13T08:44:12.715Z,9.60
2024-04-13T08:47:20.374Z,6.55
2024-04-13T08:50:25.301Z,7.18
2024-04-13T08:53:31.096Z,11.45
2024-04-13T08:56:38.216Z,6.10
2024-04-13T08:59:42.581Z,7.65
2024-04-13T09:02:46.116Z,9.80
2024-04-13T09:05:49.084Z,6.95
2024-04-13T09:08:53.955Z,7.90
2024-04-13T09:11:58.950Z,8.60
2024-04-13T09:15:03.701Z,6.75
2024-04-13T09:18:08.078Z,6.45
2024-04-13T09:21:11.996Z,7.63
2024-04-13T09:24:15.449Z,7.68
2024-04-13T09:27:25.358Z,5.17
2024-04-13T09:30:28.578Z,7.68
2024-04-13T09:33:31.711Z,7.28
2024-04-13T09:36:37.044Z,6.88
2024-04-13T09:39:43.481Z,6.85
2024-04-13T09:42:49.417Z,6.40
2024-04-13T09:46:12.158Z,6.00
2024-04-13T09:49:16.086Z,7.18
2024-04-13T09:52:20.094Z,7.47
2024-04-13T09:55:23.719Z,6.00
2024-04-13T09:58:27.573Z,5.30
2024-04-13T10:01:30.947Z,5.65
2024-04-13T10:04:34.078Z,6.38
2024-04-13T10:07:37.827Z,6.35
2024-04-13T10:10:48.782Z,5.63
2024-04-13T10:13:53.408Z,4.10
2024-04-13T10:17:02.979Z,7.40
2024-04-13T10:20:07.606Z,7.63
2024-04-13T10:23:14.810Z,5.78
2024-04-13T10:26:27.941Z,7.95
2024-04-13T10:29:38.717Z,9.17
2024-04-13T10:32:45.241Z,5.57
2024-04-13T10:35:59.203Z,5.30
2024-04-13T10:39:04.625Z,8.07
2024-04-13T10:42:14.244Z,10.15
2024-04-13T10:45:20.192Z,6.33
2024-04-13T10:48:24.620Z,11.73
2024-04-13T10:51:27.753Z,5.10
2024-04-13T10:54:30.915Z,7.22
2024-04-13T10:57:34.057Z,7.38
2024-04-13T11:00:37.165Z,6.80
2024-04-13T11:03:40.332Z,9.77
2024-04-13T11:06:43.486Z,5.85
2024-04-13T11:09:48.370Z,4.63
2024-04-13T11:12:51.417Z,6.80
2024-04-13T11:15:55.127Z,6.63
2024-04-13T11:18:58.986Z,4.57
2024-04-13T11:22:04.191Z,5.10
2024-04-13T11:25:09.041Z,6.50
2024-04-13T11:28:13.111Z,8.95
2024-04-13T11:31:16.221Z,5.53
2024-04-13T11:34:19.240Z,8.93
2024-04-13T11:37:22.818Z,5.43
2024-04-13T11:40:34.033Z,4.38
2024-04-13T11:43:37.222Z,5.60
2024-04-13T11:46:42.058Z,6.00
2024-04-13T11:49:45.616Z,6.93
2024-04-13T11:52:49.515Z,4.40
2024-04-13T11:55:53.113Z,6.65
2024-04-13T11:58:57.840Z,7.38
2024-04-13T12:02:01.390Z,9.50
2024-04-13T12:05:04.611Z,8.20
2024-04-13T12:08:07.965Z,5.10
2024-04-13T12:11:10.962Z,6.40
2024-04-13T12:14:15.817Z,8.63
2024-04-13T12:17:19.540Z,8.83
2024-04-13T12:20:22.622Z,7.43
2024-04-13T12:23:28.938Z,6.25
2024-04-13T12:26:32.502Z,8.02
2024-04-13T12:29:35.596Z,3.95
2024-04-13T12:32:40.376Z,7.53
2024-04-13T12:35:43.895Z,8.10
2024-04-13T12:38:46.886Z,6.72
2024-04-13T12:41:49.789Z,6.00
2024-04-13T12:44:53.538Z,7.78
2024-04-13T12:47:56.605Z,6.33
2024-04-13T12:51:00.270Z,5.35
2024-04-13T12:54:03.359Z,12.00
2024-04-13T12:57:06.935Z,5.35
2024-04-13T13:00:10.902Z,7.30
2024-04-13T13:03:14.412Z,7.50
2024-04-13T13:06:17.318Z,5.97
2024-04-13T13:09:20.400Z,7.07
2024-04-13T13:12:23.426Z,4.22
2024-04-13T13:15:27.116Z,6.90
2024-04-13T13:18:30.660Z,5.80
2024-04-13T13:21:33.982Z,4.97
2024-04-13T13:24:37.775Z,7.95
2024-04-13T13:27:40.949Z,7.57
2024-04-13T13:30:44.139Z,10.32
2024-04-13T13:33:47.188Z,6.63
2024-04-13T13:36:50.863Z,3.78
2024-04-13T13:39:54.473Z,6.38
2024-04-13T13:42:58.125Z,9.57
2024-04-13T13:46:01.214Z,6.60
2024-04-13T13:49:04.900Z,6.77
2024-04-13T13:52:08.592Z,7.97
2024-04-13T13:55:11.473Z,9.70
2024-04-13T13:58:14.454Z,5.40
2024-04-13T14:01:18.338Z,9.35
2024-04-13T14:04:21.463Z,4.40
2024-04-13T14:07:24.557Z,6.82
2024-04-13T14:10:29.629Z,8.15
2024-04-13T14:13:33.329Z,6.63
2024-04-13T14:16:36.427Z,5.57
2024-04-13T14:19:39.936Z,5.93
2024-04-13T14:22:43.371Z,7.65
2024-04-13T14:25:49.125Z,6.70
2024-04-13T14:28:52.415Z,7.88
2024-04-13T14:31:55.366Z,6.22
2024-04-13T14:34:58.390Z,4.97
2024-04-13T14:38:01.622Z,6.00
2024-04-13T14:41:05.270Z,9.18
2024-04-13T14:44:08.180Z,7.35
2024-04-13T14:47:13.920Z,7.30
2024-04-13T14:50:17.773Z,5.20
2024-04-13T14:53:20.768Z,4.45
2024-04-13T14:56:23.828Z,4.68
2024-04-13T14:59:27.374Z,8.13
2024-04-13T15:02:34.216Z,7.57
2024-04-13T15:05:37.815Z,5.13
2024-04-13T15:08:40.820Z,6.38
2024-04-13T15:11:44.451Z,7.88
2024-04-13T15:14:48.260Z,7.15
2024-04-13T15:17:51.903Z,8.70
2024-04-13T15:20:59.802Z,5.67
2024-04-13T15:24:04.241Z,3.88
2024-04-13T15:27:08.863Z,6.20
2024-04-13T15:30:12.515Z,6.35
2024-04-13T15:33:15.970Z,5.50
2024-04-13T15:36:19.598Z,4.93
2024-04-13T15:39:23.093Z,9.13
2024-04-13T15:42:26.110Z,7.55
2024-04-13T15:45:29.541Z,5.32
2024-04-13T15:48:32.591Z,7.75
2024-04-13T15:51:35.667Z,8.97
2024-04-13T15:54:38.703Z,13.57
2024-04-13T15:57:41.736Z,7.40
2024-04-13T16:00:45.502Z,9.32
2024-04-13T16:03:48.556Z,10.77
2024-04-13T16:06:55.466Z,8.60
2024-04-13T16:09:58.515Z,6.80
2024-04-13T16:13:01.796Z,5.00
2024-04-13T16:16:14.373Z,5.13
2024-04-13T16:19:22.431Z,3.30
2024-04-13T16:22:26.005Z,3.83
2024-04-13T16:25:29.861Z,6.15
2024-04-13T16:28:33.369Z,6.22
2024-04-13T16:31:36.313Z,4.68
2024-04-13T16:34:39.293Z,5.18
2024-04-13T16:37:43.269Z,7.87
2024-04-13T16:40:46.780Z,4.00
2024-04-13T16:43:49.853Z,4.82
2024-04-13T16:46:52.994Z,5.53
2024-04-13T16:49:56.566Z,6.13
2024-04-13T16:53:00.058Z,8.30
2024-04-13T16:56:03.166Z,7.50
2024-04-13T16:59:06.061Z,9.48
2024-04-13T17:02:09.400Z,5.63
2024-04-13T17:05:13.284Z,5.60
2024-04-13T17:08:17.665Z,6.73
2024-04-13T17:11:21.342Z,5.50
2024-04-13T17:14:24.883Z,5.57
2024-04-13T17:17:28.573Z,6.03
2024-04-13T17:20:32.125Z,6.55
2024-04-13T17:23:41.410Z,5.70
2024-04-13T17:26:44.996Z,7.25
2024-04-13T17:29:48.578Z,5.45
2024-04-13T17:32:52.128Z,6.15
2024-04-13T17:35:55.280Z,7.78
2024-04-13T17:38:58.274Z,6.53
2024-04-13T17:42:01.363Z,10.60
2024-04-13T17:45:05.051Z,11.73
2024-04-13T17:48:08.508Z,9.10
2024-04-13T17:51:12.245Z,9.70
2024-04-13T17:54:15.292Z,9.97
2024-04-13T17:57:18.934Z,15.18
2024-04-13T18:00:22.844Z,10.57
2024-04-13T18:03:26.389Z,9.25
2024-04-13T18:06:29.807Z,16.15
2024-04-13T18:09:33.808Z,9.63
2024-04-13T18:12:37.441Z,11.57
2024-04-13T18:15:41.099Z,14.18
2024-04-13T18:18:44.041Z,14.30
2024-04-13T18:21:47.316Z,11.77
2024-04-13T18:24:53.340Z,15.47
2024-04-13T18:27:56.468Z,15.88
2024-04-13T18:31:00.427Z,17.67
2024-04-13T18:34:06.351Z,16.23
2024-04-13T18:37:09.952Z,23.57
2024-04-13T18:40:13.395Z,17.02
2024-04-13T18:43:16.866Z,17.15
2024-04-13T18:46:20.922Z,13.90
2024-04-13T18:49:24.728Z,11.73
2024-04-13T18:52:27.807Z,17.58
2024-04-13T18:55:30.811Z,18.00
2024-04-13T18:58:34.137Z,18.70
2024-04-13T19:01:37.449Z,17.73
2024-04-13T19:04:41.002Z,23.77
2024-04-13T19:07:45.032Z,26.27
2024-04-13T19:10:48.528Z,20.52
2024-04-13T19:13:53.396Z,18.87
2024-04-13T19:16:57.247Z,21.33
2024-04-13T19:20:01.847Z,25.33
2024-04-13T19:23:06.745Z,27.08
2024-04-13T19:26:10.379Z,18.70
2024-04-13T19:29:15.439Z,15.93
2024-04-13T19:32:19.084Z,18.23
2024-04-13T19:35:22.079Z,12.27
2024-04-13T19:38:26.826Z,11.40
2024-04-13T19:41:29.910Z,13.40
2024-04-13T19:44:33.479Z,8.77
2024-04-13T19:47:37.218Z,9.32
2024-04-13T19:50:40.783Z,8.87
2024-04-13T19:53:48.208Z,8.73
2024-04-13T19:56:52.389Z,10.43
2024-04-13T19:59:55.705Z,11.70
2024-04-13T20:02:58.726Z,14.97
2024-04-13T20:06:02.035Z,8.63
2024-04-13T20:09:06.150Z,15.48
2024-04-13T20:12:09.467Z,9.65
2024-04-13T20:15:31.659Z,9.00
2024-04-13T20:18:43.963Z,13.00
2024-04-13T20:21:47.086Z,15.73
2024-04-13T20:24:50.757Z,13.27
2024-04-13T20:27:53.841Z,20.37
2024-04-13T20:30:56.978Z,15.48
2024-04-13T20:34:00.137Z,17.42
2024-04-13T20:37:04.622Z,19.08
2024-04-13T20:40:08.196Z,22.90
2024-04-13T20:43:11.543Z,26.15
2024-04-13T20:46:15.002Z,18.20
2024-04-13T20:49:18.473Z,16.85
2024-04-13T20:52:21.989Z,20.48
2024-04-13T20:55:26.383Z,21.67
2024-04-13T20:58:29.280Z,18.98
2024-04-13T21:01:32.476Z,17.37
2024-04-13T21:04:35.723Z,16.15
2024-04-13T21:07:39.250Z,17.02
2024-04-13T21:10:42.356Z,14.00
2024-04-13T21:13:45.431Z,14.98
2024-04-13T21:16:48.915Z,16.52
2024-04-13T21:19:51.837Z,15.02
2024-04-13T21:22:55.387Z,14.47
2024-04-13T21:25:59.113Z,18.60
2024-04-13T21:29:02.606Z,14.43
2024-04-13T21:32:07.050Z,12.07
2024-04-13T21:35:11.312Z,12.20
2024-04-13T21:38:15.926Z,14.68
2024-04-13T21:41:18.917Z,13.05
2024-04-13T21:44:21.896Z,12.93
2024-04-13T21:47:24.774Z,9.57
2024-04-13T21:50:28.477Z,12.63
2024-04-13T21:53:32.011Z,10.93
2024-04-13T21:56:35.641Z,12.70
2024-04-13T21:59:38.598Z,10.57
2024-04-13T22:02:42.272Z,10.77
2024-04-13T22:05:46.253Z,8.93
2024-04-13T22:08:55.856Z,11.65
2024-04-13T22:12:02.399Z,8.48
2024-04-13T22:15:06.231Z,10.73
2024-04-13T22:18:09.240Z,13.43
2024-04-13T22:21:14.188Z,14.05
2024-04-13T22:24:17.604Z,8.67
2024-04-13T22:27:20.581Z,10.18
2024-04-13T22:30:24.093Z,14.55
2024-04-13T22:33:27.651Z,15.37
2024-04-13T22:36:32.883Z,11.30
2024-04-13T22:39:36.460Z,12.50
2024-04-13T22:42:39.796Z,9.55
2024-04-13T22:45:43.338Z,10.60
2024-04-13T22:48:46.643Z,15.55
2024-04-13T22:51:50.324Z,16.30
2024-04-13T22:54:53.933Z,10.40
2024-04-13T22:57:57.568Z,9.73
2024-04-13T23:01:01.125Z,10.15
2024-04-13T23:04:04.928Z,11.13
2024-04-13T23:07:08.409Z,10.75
2024-04-13T23:10:11.913Z,12.07
2024-04-13T23:13:14.944Z,12.18
2024-04-13T23:16:18.515Z,14.43
2024-04-13T23:19:21.982Z,13.48
2024-04-13T23:22:24.964Z,17.25
2024-04-13T23:25:28.913Z,14.10
2024-04-13T23:28:32.466Z,20.23
2024-04-13T23:31:40.410Z,15.90
2024-04-13T23:34:44.063Z,18.25
2024-04-13T23:37:47.476Z,14.95
2024-04-13T23:40:50.965Z,18.50
2024-04-13T23:43:54.690Z,19.88
2024-04-13T23:46:58.564Z,19.60
2024-04-13T23:50:02.014Z,18.65
2024-04-13T23:53:07.097Z,17.70
2024-04-13T23:56:14.333Z,15.37
2024-04-13T23:59:17.301Z,15.82
